Time;durP1;ratioP1;P1;durP2;ratioP2;P2;SDS_P1;SDS_P2;PMS_P1;PMS_P2;Temp;Humidity;BMP_temperature;BMP_pressure;BME280_temperature;BME280_humidity;BME280_pressure;Samples;Min_cycle;Max_cycle;Signal;HPM_P1;HPM_P2
2023/07/09 00:03:23;;;;;;;;;;;;;;;23.63;45.69;96111.78;10393774;28;1985;-62
2023/07/09 00:08:26;;;;;;;;;;;;;;;23.61;46.01;96108.63;10396707;28;1977;-61
2023/07/09 00:13:26;;;;;;;;;;;;;;;23.61;46.09;96101.50;10398732;28;1938;-61
2023/07/09 00:18:27;;;;;;;;;;;;;;;23.59;46.10;96110.78;10394691;28;1931;-62
2023/07/09 00:23:27;;;;;;;;;;;;;;;23.53;46.74;96115.34;10394953;28;2041;-62
2023/07/09 00:28:27;;;;;;;;;;;;;;;23.52;46.59;96115.59;10399727;28;1983;-62
2023/07/09 00:33:31;;;;;;;;;;;;;;;23.47;46.95;96119.13;10394472;28;1929;-62
2023/07/09 00:38:38;;;;;;;;;;;;;;;23.43;46.87;96118.13;10395823;28;2033;-62
2023/07/09 00:43:42;;;;;;;;;;;;;;;23.42;47.03;96124.47;10396388;28;1889;-62
2023/07/09 00:48:43;;;;;;;;;;;;;;;23.37;47.43;96129.81;10390880;28;2359;-62
2023/07/09 00:53:45;;;;;;;;;;;;;;;23.31;47.34;96128.25;10403995;28;2034;-61
2023/07/09 00:58:47;;;;;;;;;;;;;;;23.27;47.67;96125.41;10404784;28;2174;-62
2023/07/09 01:03:49;;;;;;;;;;;;;;;23.26;47.58;96137.06;10401112;28;2001;-62
2023/07/09 01:08:53;;;;;;;;;;;;;;;23.28;47.54;96134.13;10402509;28;1966;-62
2023/07/09 01:13:54;;;;;;;;;;;;;;;23.25;47.81;96138.13;10406193;28;2041;-61
2023/07/09 01:18:55;;;;;;;;;;;;;;;23.24;47.89;96147.13;10401750;28;2023;-62
2023/07/09 01:23:57;;;;;;;;;;;;;;;23.22;48.19;96148.47;10402759;28;1975;-61
2023/07/09 01:28:57;;;;;;;;;;;;;;;23.19;48.37;96154.31;10404002;28;2089;-62
2023/07/09 01:33:58;;;;;;;;;;;;;;;23.17;48.62;96146.66;10403495;28;2021;-62
2023/07/09 01:38:58;;;;;;;;;;;;;;;23.14;48.93;96151.72;10402191;28;2019;-62
2023/07/09 01:43:58;;;;;;;;;;;;;;;23.11;48.57;96139.84;10399321;28;4449;-62
2023/07/09 01:48:58;;;;;;;;;;;;;;;23.08;48.83;96142.28;10402156;28;2138;-62
2023/07/09 01:53:59;;;;;;;;;;;;;;;23.08;48.80;96139.63;10405356;28;2003;-62
2023/07/09 01:59:00;;;;;;;;;;;;;;;23.02;49.07;96144.16;10385678;28;2248;-62
2023/07/09 02:04:01;;;;;;;;;;;;;;;23.04;48.92;96152.59;10399214;28;2015;-62
2023/07/09 02:09:01;;;;;;;;;;;;;;;23.00;49.16;96151.59;10401433;28;1981;-61
2023/07/09 02:14:01;;;;;;;;;;;;;;;22.99;48.96;96157.97;10402735;28;2145;-62
2023/07/09 02:19:01;;;;;;;;;;;;;;;22.97;49.29;96148.72;10399477;28;2242;-62
2023/07/09 02:24:02;;;;;;;;;;;;;;;22.91;49.37;96152.47;10402682;28;2023;-63
2023/07/09 02:29:02;;;;;;;;;;;;;;;22.94;49.23;96151.91;10402255;28;2018;-62
2023/07/09 02:34:03;;;;;;;;;;;;;;;22.90;49.53;96146.41;10399691;28;2040;-63
2023/07/09 02:39:03;;;;;;;;;;;;;;;22.89;49.40;96154.63;10400116;28;2440;-63
2023/07/09 02:44:03;;;;;;;;;;;;;;;22.87;49.54;96154.09;10400988;28;4457;-63
2023/07/09 02:49:04;;;;;;;;;;;;;;;22.81;49.74;96157.84;10402630;28;1988;-63
2023/07/09 02:54:04;;;;;;;;;;;;;;;22.81;49.64;96158.66;10402478;28;2026;-63
2023/07/09 02:59:04;;;;;;;;;;;;;;;22.79;49.63;96160.78;10401331;28;2080;-62
2023/07/09 03:04:05;;;;;;;;;;;;;;;22.79;49.76;96158.16;10402753;28;2055;-63
2023/07/09 03:09:05;;;;;;;;;;;;;;;22.78;49.62;96163.69;10399452;28;2000;-63
2023/07/09 03:14:05;;;;;;;;;;;;;;;22.74;50.00;96170.59;10400316;28;2272;-61
2023/07/09 03:19:06;;;;;;;;;;;;;;;22.74;49.67;96166.09;10400352;28;2041;-63
2023/07/09 03:24:07;;;;;;;;;;;;;;;22.72;49.64;96165.59;10399100;28;2027;-62
2023/07/09 03:29:07;;;;;;;;;;;;;;;22.70;50.07;96173.00;10398426;28;2117;-63
2023/07/09 03:34:07;;;;;;;;;;;;;;;22.72;49.62;96175.38;10396030;28;2213;-63
2023/07/09 03:39:07;;;;;;;;;;;;;;;22.73;49.63;96182.25;10394119;28;2019;-63
2023/07/09 03:44:08;;;;;;;;;;;;;;;22.76;49.34;96187.75;10397918;28;4471;-63
2023/07/09 03:49:08;;;;;;;;;;;;;;;22.77;49.65;96191.19;10395721;28;1981;-62
2023/07/09 03:54:08;;;;;;;;;;;;;;;22.74;49.24;96183.81;10378319;28;2144;-63
2023/07/09 03:59:08;;;;;;;;;;;;;;;22.72;49.53;96185.94;10396862;28;2012;-63
2023/07/09 04:04:09;;;;;;;;;;;;;;;22.72;49.80;96196.50;10394824;28;1980;-63
2023/07/09 04:09:09;;;;;;;;;;;;;;;22.73;49.70;96192.81;10398661;28;2023;-63
2023/07/09 04:14:09;;;;;;;;;;;;;;;22.72;49.59;96196.50;10395901;28;2093;-63
2023/07/09 04:19:09;;;;;;;;;;;;;;;22.69;49.58;96197.06;10394427;28;1986;-63
2023/07/09 04:24:10;;;;;;;;;;;;;;;22.67;49.50;96192.03;10396051;28;1971;-63
2023/07/09 04:29:10;;;;;;;;;;;;;;;22.67;49.41;96211.34;10394459;28;1999;-62
2023/07/09 04:34:10;;;;;;;;;;;;;;;22.64;49.56;96203.97;10399841;28;2297;-63
2023/07/09 04:39:10;;;;;;;;;;;;;;;22.67;49.49;96203.41;10397151;28;1995;-63
2023/07/09 04:44:11;;;;;;;;;;;;;;;22.70;49.41;96206.56;10396951;28;4490;-63
2023/07/09 04:49:12;;;;;;;;;;;;;;;22.70;49.50;96212.66;10395680;28;2051;-63
2023/07/09 04:54:13;;;;;;;;;;;;;;;22.71;49.17;96216.84;10392839;28;2029;-63
2023/07/09 04:59:14;;;;;;;;;;;;;;;22.67;49.46;96215.06;10397343;28;1968;-63
2023/07/09 05:04:14;;;;;;;;;;;;;;;22.67;49.55;96219.25;10396096;28;2095;-63
2023/07/09 05:09:14;;;;;;;;;;;;;;;22.68;49.18;96220.06;10395974;28;2070;-63
2023/07/09 05:14:15;;;;;;;;;;;;;;;22.65;49.10;96213.47;10397150;28;2047;-63
2023/07/09 05:19:15;;;;;;;;;;;;;;;22.67;48.98;96217.69;10392660;28;2042;-63
2023/07/09 05:24:15;;;;;;;;;;;;;;;22.69;49.26;96218.22;10396208;28;2008;-63
2023/07/09 05:29:15;;;;;;;;;;;;;;;22.73;49.26;96221.88;10398924;28;2027;-63
2023/07/09 05:34:16;;;;;;;;;;;;;;;22.75;48.76;96227.69;10393278;28;2476;-63
2023/07/09 05:39:16;;;;;;;;;;;;;;;22.78;48.91;96227.91;10398351;28;2167;-63
2023/07/09 05:44:17;;;;;;;;;;;;;;;22.82;48.79;96233.44;10403346;28;4514;-62
2023/07/09 05:49:17;;;;;;;;;;;;;;;22.87;48.89;96231.56;10404081;28;2006;-63
2023/07/09 05:54:18;;;;;;;;;;;;;;;22.91;48.44;96239.72;10402255;28;1951;-63
2023/07/09 05:59:19;;;;;;;;;;;;;;;22.94;48.48;96242.59;10402527;28;2075;-63
2023/07/09 06:04:19;;;;;;;;;;;;;;;22.99;48.21;96239.91;10406895;28;1973;-64
2023/07/09 06:09:19;;;;;;;;;;;;;;;23.02;48.27;96236.69;10403795;28;2179;-63
2023/07/09 06:14:19;;;;;;;;;;;;;;;23.07;48.21;96244.59;10399334;28;2046;-65
2023/07/09 06:19:20;;;;;;;;;;;;;;;23.11;48.13;96242.97;10401880;28;2056;-63
2023/07/09 06:24:20;;;;;;;;;;;;;;;23.17;48.17;96254.31;10405314;28;2241;-63
2023/07/09 06:29:20;;;;;;;;;;;;;;;23.20;48.15;96256.41;10402240;28;2166;-63
2023/07/09 06:34:21;;;;;;;;;;;;;;;23.23;47.57;96255.84;10399587;28;2179;-63
2023/07/09 06:39:21;;;;;;;;;;;;;;;23.26;47.57;96256.09;10403875;28;1996;-63
2023/07/09 06:44:21;;;;;;;;;;;;;;;23.30;47.46;96251.03;10401634;28;4450;-63
2023/07/09 06:49:22;;;;;;;;;;;;;;;23.32;47.30;96246.28;10395394;28;2073;-63
2023/07/09 06:54:22;;;;;;;;;;;;;;;23.35;46.66;96243.06;10397038;28;2031;-62
2023/07/09 06:59:22;;;;;;;;;;;;;;;23.38;46.61;96243.31;10395752;28;2014;-63
2023/07/09 07:04:25;;;;;;;;;;;;;;;23.41;46.57;96244.59;10397568;28;2110;-62
2023/07/09 07:09:25;;;;;;;;;;;;;;;23.48;46.02;96245.06;10381993;28;2018;-63
2023/07/09 07:14:25;;;;;;;;;;;;;;;23.49;46.29;96248.50;10395128;28;2111;-63
2023/07/09 07:19:26;;;;;;;;;;;;;;;23.50;45.94;96248.19;10399387;28;2139;-62
2023/07/09 07:24:26;;;;;;;;;;;;;;;23.59;45.58;96253.69;10399271;28;1887;-63
2023/07/09 07:29:27;;;;;;;;;;;;;;;23.62;45.28;96247.84;10396259;28;1984;-63
2023/07/09 07:34:27;;;;;;;;;;;;;;;23.58;46.18;96242.28;10399101;28;2002;-63
2023/07/09 07:39:27;;;;;;;;;;;;;;;23.62;45.53;96237.25;10398757;28;1921;-63
2023/07/09 07:44:27;;;;;;;;;;;;;;;23.61;45.79;96239.09;10392205;28;4642;-63
2023/07/09 07:49:28;;;;;;;;;;;;;;;23.62;45.80;96231.97;10395703;28;1937;-63
2023/07/09 07:54:28;;;;;;;;;;;;;;;23.62;46.01;96224.78;10395806;28;1969;-63
2023/07/09 07:59:28;;;;;;;;;;;;;;;23.74;45.08;96230.47;10396084;28;1946;-63
2023/07/09 08:04:28;;;;;;;;;;;;;;;23.96;44.54;96222.81;10394909;28;1993;-63
2023/07/09 08:09:29;;;;;;;;;;;;;;;23.85;44.81;96228.50;10394246;28;1969;-63
2023/07/09 08:14:29;;;;;;;;;;;;;;;23.82;45.10;96216.59;10393898;28;1996;-63
2023/07/09 08:19:30;;;;;;;;;;;;;;;23.82;45.15;96221.91;10398824;28;1968;-63
2023/07/09 08:24:30;;;;;;;;;;;;;;;24.07;43.22;96224.28;10395755;28;1936;-64
2023/07/09 08:29:30;;;;;;;;;;;;;;;23.93;44.06;96223.38;10394495;28;1950;-63
2023/07/09 08:34:30;;;;;;;;;;;;;;;23.99;43.63;96216.16;10397803;28;1942;-64
2023/07/09 08:39:32;;;;;;;;;;;;;;;24.10;42.56;96223.72;10392175;28;1906;-63
2023/07/09 08:44:35;;;;;;;;;;;;;;;24.05;42.89;96221.13;10392125;28;4509;-63
2023/07/09 08:49:41;;;;;;;;;;;;;;;24.07;42.78;96211.03;10397247;28;1964;-62
2023/07/09 08:54:41;;;;;;;;;;;;;;;24.05;43.21;96213.19;10397900;28;2097;-63
2023/07/09 08:59:41;;;;;;;;;;;;;;;24.01;43.60;96214.78;10411046;28;1978;-62
2023/07/09 09:04:41;;;;;;;;;;;;;;;24.03;43.18;96212.69;10395740;28;1938;-63
2023/07/09 09:10:08;;;;;;;;;;;;;;;24.00;42.79;96218.53;10363821;28;2115;-61
2023/07/09 09:15:08;;;;;;;;;;;;;;;23.99;42.52;96222.25;10398501;28;2556;-64
2023/07/09 09:20:10;;;;;;;;;;;;;;;23.95;42.99;96212.50;10400210;28;2001;-61
2023/07/09 09:25:12;;;;;;;;;;;;;;;23.96;43.46;96217.53;10379958;28;2046;-62
2023/07/09 09:30:16;;;;;;;;;;;;;;;23.96;43.98;96220.16;10380566;28;2002;-63
2023/07/09 09:35:17;;;;;;;;;;;;;;;23.97;44.09;96213.00;10383787;28;1972;-63
2023/07/09 09:40:18;;;;;;;;;;;;;;;23.97;44.42;96211.13;10399167;28;4536;-64
2023/07/09 09:45:20;;;;;;;;;;;;;;;24.00;45.83;96223.03;10405480;28;2026;-63
2023/07/09 09:50:21;;;;;;;;;;;;;;;24.03;46.45;96217.97;10383277;28;2040;-64
2023/07/09 09:55:27;;;;;;;;;;;;;;;24.05;46.71;96213.19;10399665;28;1972;-62
2023/07/09 10:00:28;;;;;;;;;;;;;;;24.08;47.40;96214.47;10397647;28;2023;-63
2023/07/09 10:05:31;;;;;;;;;;;;;;;24.08;47.67;96214.47;10398452;28;2044;-62
2023/07/09 10:10:32;;;;;;;;;;;;;;;24.10;47.91;96207.03;10397851;28;2265;-64
2023/07/09 10:15:56;;;;;;;;;;;;;;;24.10;48.00;96209.69;10379182;28;2063;-63
2023/07/09 10:20:56;;;;;;;;;;;;;;;24.10;48.62;96207.84;10381820;28;2243;-63
2023/07/09 10:26:09;;;;;;;;;;;;;;;24.11;48.46;96213.94;10400502;28;2065;-64
2023/07/09 10:31:12;;;;;;;;;;;;;;;24.13;48.59;96201.19;10396619;28;1976;-64
2023/07/09 10:36:19;;;;;;;;;;;;;;;24.14;49.25;96203.53;10398693;28;2104;-64
2023/07/09 10:41:19;;;;;;;;;;;;;;;24.15;49.38;96207.75;10401738;28;4459;-65
2023/07/09 10:46:24;;;;;;;;;;;;;;;24.17;49.30;96196.91;10381982;28;2048;-63
2023/07/09 10:51:26;;;;;;;;;;;;;;;24.17;49.51;96202.97;10398182;28;2071;-64
2023/07/09 10:56:28;;;;;;;;;;;;;;;24.17;49.69;96218.84;10398354;28;1924;-64
2023/07/09 11:01:32;;;;;;;;;;;;;;;24.18;49.69;96201.91;10388593;28;1951;-64
2023/07/09 11:06:34;;;;;;;;;;;;;;;24.18;49.63;96193.16;10382343;28;2247;-64
2023/07/09 11:11:35;;;;;;;;;;;;;;;24.19;49.77;96192.88;10397659;28;1891;-64
2023/07/09 11:16:38;;;;;;;;;;;;;;;24.20;49.61;96186.50;10394243;28;2325;-65
2023/07/09 11:21:45;;;;;;;;;;;;;;;24.22;49.47;96188.88;10411646;28;1983;-65
2023/07/09 11:26:46;;;;;;;;;;;;;;;24.23;49.60;96185.16;10395111;28;2011;-64
2023/07/09 11:31:48;;;;;;;;;;;;;;;24.23;49.80;96191.22;10382960;28;1937;-66
2023/07/09 11:36:55;;;;;;;;;;;;;;;24.25;49.67;96178.47;10392996;28;1925;-66
2023/07/09 11:41:55;;;;;;;;;;;;;;;24.27;49.66;96177.41;10397721;28;4545;-71
2023/07/09 11:46:58;;;;;;;;;;;;;;;24.27;49.38;96164.16;10380996;28;2424;-71
2023/07/09 11:52:00;;;;;;;;;;;;;;;24.27;49.51;96156.22;10397214;28;2015;-71
2023/07/09 11:57:02;;;;;;;;;;;;;;;24.28;49.57;96150.63;10380429;28;1927;-71
2023/07/09 12:02:03;;;;;;;;;;;;;;;24.27;49.77;96143.78;10393694;28;2392;-70
2023/07/09 12:07:03;;;;;;;;;;;;;;;24.29;49.89;96151.41;10380905;28;2043;-70
2023/07/09 12:12:04;;;;;;;;;;;;;;;24.29;49.81;96140.81;10394130;28;1970;-70
2023/07/09 12:17:07;;;;;;;;;;;;;;;24.30;49.84;96131.81;10395242;28;1986;-71
2023/07/09 12:22:15;;;;;;;;;;;;;;;24.32;49.73;96140.25;10383728;28;1992;-70
2023/07/09 12:27:22;;;;;;;;;;;;;;;24.32;49.92;96129.66;10376018;28;1927;-69
2023/07/09 12:32:26;;;;;;;;;;;;;;;24.32;49.90;96119.84;10398667;28;1950;-70
2023/07/09 12:37:27;;;;;;;;;;;;;;;24.33;50.03;96117.97;10396041;28;1937;-70
2023/07/09 12:42:31;;;;;;;;;;;;;;;24.34;49.93;96117.69;10409502;28;4522;-70
2023/07/09 12:47:32;;;;;;;;;;;;;;;24.34;49.91;96117.69;10381626;28;1960;-71
2023/07/09 12:52:32;;;;;;;;;;;;;;;24.35;50.02;96105.22;10388408;28;1985;-70
2023/07/09 12:57:33;;;;;;;;;;;;;;;24.36;49.78;96104.16;10406917;28;3182;-69
2023/07/09 13:02:37;;;;;;;;;;;;;;;24.36;49.90;96093.56;10385933;28;1980;-70
2023/07/09 13:07:37;;;;;;;;;;;;;;;24.35;49.88;96095.44;10405486;28;2029;-70
2023/07/09 13:12:38;;;;;;;;;;;;;;;24.36;49.78;96082.97;10405214;28;1963;-71
2023/07/09 13:17:41;;;;;;;;;;;;;;;24.35;49.76;96082.19;10400503;28;2014;-70
2023/07/09 13:22:42;;;;;;;;;;;;;;;24.37;49.75;96092.47;10403284;28;1935;-70
2023/07/09 13:27:42;;;;;;;;;;;;;;;24.38;49.72;96091.41;10405577;28;2014;-71
2023/07/09 13:32:47;;;;;;;;;;;;;;;24.38;49.55;96086.13;10402471;28;2000;-69
2023/07/09 13:37:48;;;;;;;;;;;;;;;24.37;49.71;96087.97;10402830;28;1906;-70
2023/07/09 13:42:48;;;;;;;;;;;;;;;24.39;49.50;96090.31;10403788;28;4606;-71
2023/07/09 13:47:50;;;;;;;;;;;;;;;24.39;49.57;96071.78;10385586;28;1936;-70
2023/07/09 13:52:50;;;;;;;;;;;;;;;24.39;49.51;96082.38;10410727;28;2208;-70
2023/07/09 13:57:50;;;;;;;;;;;;;;;24.39;49.63;96083.16;10399979;28;2206;-71
2023/07/09 14:02:50;;;;;;;;;;;;;;;24.40;49.53;96078.66;10404249;28;1934;-70
2023/07/09 14:07:51;;;;;;;;;;;;;;;24.41;49.74;96064.31;10401468;28;2001;-72
2023/07/09 14:12:52;;;;;;;;;;;;;;;24.42;49.62;96071.22;10383602;28;2053;-71
2023/07/09 14:17:52;;;;;;;;;;;;;;;24.42;49.75;96073.88;10398439;28;1986;-73
2023/07/09 14:22:53;;;;;;;;;;;;;;;24.43;49.66;96068.25;10402135;28;1906;-72
2023/07/09 14:27:53;;;;;;;;;;;;;;;24.43;49.50;96060.31;10399566;28;1973;-73
2023/07/09 14:32:53;;;;;;;;;;;;;;;24.44;49.46;96071.72;10401930;28;1949;-71
2023/07/09 14:37:59;;;;;;;;;;;;;;;24.45;49.42;96060.03;10408127;28;2123;-72
2023/07/09 14:43:00;;;;;;;;;;;;;;;24.44;49.33;96045.97;10402139;28;2262;-72
2023/07/09 14:48:00;;;;;;;;;;;;;;;24.45;49.32;96038.81;10399440;28;1977;-72
2023/07/09 14:53:01;;;;;;;;;;;;;;;24.45;49.21;96046.75;10398614;28;2304;-72
2023/07/09 14:58:05;;;;;;;;;;;;;;;24.46;49.27;96046.47;10387213;28;1997;-72
2023/07/09 15:03:07;;;;;;;;;;;;;;;24.47;49.15;96047.25;10380898;28;1983;-72
2023/07/09 15:08:18;;;;;;;;;;;;;;;24.47;49.28;96042.75;10380911;28;2003;-72
2023/07/09 15:13:21;;;;;;;;;;;;;;;24.48;49.29;96028.44;10409428;28;1951;-73
2023/07/09 15:18:22;;;;;;;;;;;;;;;24.49;49.01;96031.84;10398866;28;1901;-72
2023/07/09 15:23:23;;;;;;;;;;;;;;;24.49;49.13;96023.91;10398246;28;2306;-73
2023/07/09 15:28:23;;;;;;;;;;;;;;;24.49;49.08;96026.56;10384623;28;1988;-73
2023/07/09 15:33:23;;;;;;;;;;;;;;;24.50;49.20;96031.59;10383556;28;2071;-73
2023/07/09 15:38:30;;;;;;;;;;;;;;;24.50;49.13;96018.34;10398148;28;2123;-74
2023/07/09 15:43:31;;;;;;;;;;;;;;;24.51;49.33;96017.25;10397742;28;4520;-73
2023/07/09 15:48:34;;;;;;;;;;;;;;;24.51;48.99;96025.19;10395777;28;2361;-74
2023/07/09 15:53:34;;;;;;;;;;;;;;;24.51;49.03;96017.25;10409957;28;1952;-73
2023/07/09 15:58:41;;;;;;;;;;;;;;;24.53;49.16;96017.75;10395533;28;1938;-73
2023/07/09 16:03:43;;;;;;;;;;;;;;;24.53;48.96;96011.66;10396917;28;2012;-73
2023/07/09 16:08:43;;;;;;;;;;;;;;;24.54;48.90;96015.88;10380332;28;1997;-73
2023/07/09 16:13:45;;;;;;;;;;;;;;;24.54;49.09;96006.06;10395170;28;1948;-73
2023/07/09 16:18:45;;;;;;;;;;;;;;;24.55;49.04;96006.84;10394749;28;1998;-73
2023/07/09 16:23:46;;;;;;;;;;;;;;;24.54;49.11;96006.06;10396365;28;2053;-73
2023/07/09 16:28:46;;;;;;;;;;;;;;;24.55;49.11;96004.97;10397086;28;2109;-73
2023/07/09 16:33:46;;;;;;;;;;;;;;;24.55;49.19;96006.84;10396822;28;2089;-73
2023/07/09 16:38:47;;;;;;;;;;;;;;;24.57;49.02;96007.31;10394522;28;2009;-73
2023/07/09 16:43:47;;;;;;;;;;;;;;;24.57;49.20;96004.69;10393513;28;4351;-72
2023/07/09 16:48:47;;;;;;;;;;;;;;;24.57;49.02;96002.03;10397460;28;1977;-74
2023/07/09 16:53:48;;;;;;;;;;;;;;;24.58;49.03;95998.31;10393453;28;2186;-74
2023/07/09 16:58:48;;;;;;;;;;;;;;;24.57;49.07;95994.88;10378690;28;1926;-73
2023/07/09 17:03:48;;;;;;;;;;;;;;;24.58;48.99;95995.66;10395839;28;1886;-73
2023/07/09 17:08:48;;;;;;;;;;;;;;;24.59;48.99;95997.22;10397504;28;1965;-73
2023/07/09 17:13:51;;;;;;;;;;;;;;;24.60;49.01;95993.50;10393934;28;2083;-72
2023/07/09 17:18:51;;;;;;;;;;;;;;;24.60;49.07;95996.16;10401762;28;1946;-72
2023/07/09 17:23:51;;;;;;;;;;;;;;;24.59;48.95;95995.38;10396555;28;1938;-72
2023/07/09 17:28:51;;;;;;;;;;;;;;;24.60;48.76;96002.25;10394380;28;1975;-72
2023/07/09 17:33:52;;;;;;;;;;;;;;;24.61;49.00;96003.00;10395886;28;2048;-73
2023/07/09 17:38:52;;;;;;;;;;;;;;;24.61;48.91;95995.06;10403935;28;2350;-72
2023/07/09 17:43:52;;;;;;;;;;;;;;;24.61;49.18;95997.72;10405064;28;4458;-73
2023/07/09 17:48:53;;;;;;;;;;;;;;;24.61;49.02;96003.00;10412052;28;2229;-73
2023/07/09 17:53:54;;;;;;;;;;;;;;;24.61;48.77;95998.50;10401992;28;2034;-72
2023/07/09 17:58:54;;;;;;;;;;;;;;;24.63;49.11;96001.66;10405160;28;1962;-72
2023/07/09 18:03:54;;;;;;;;;;;;;;;24.63;48.98;96014.91;10404587;28;1890;-71
2023/07/09 18:08:54;;;;;;;;;;;;;;;24.64;48.77;96015.69;10405971;28;1906;-71
2023/07/09 18:13:55;;;;;;;;;;;;;;;24.64;48.78;96016.50;10402885;28;2045;-71
2023/07/09 18:18:55;;;;;;;;;;;;;;;24.64;48.98;96016.50;10377615;28;1876;-71
2023/07/09 18:23:55;;;;;;;;;;;;;;;24.65;48.74;96019.91;10397901;28;1985;-67
2023/07/09 18:28:55;;;;;;;;;;;;;;;24.66;48.88;96018.84;10395423;28;2009;-66
2023/07/09 18:33:56;;;;;;;;;;;;;;;24.66;49.16;96021.50;10383236;28;2283;-67
2023/07/09 18:38:56;;;;;;;;;;;;;;;24.67;48.94;96023.03;10397583;28;2002;-67
2023/07/09 18:43:56;;;;;;;;;;;;;;;24.69;49.20;96028.88;10399778;28;4461;-65
2023/07/09 18:48:57;;;;;;;;;;;;;;;24.70;49.15;96022.47;10399070;28;1903;-63
2023/07/09 18:53:57;;;;;;;;;;;;;;;24.71;49.18;96016.09;10397771;28;2016;-64
2023/07/09 18:58:57;;;;;;;;;;;;;;;24.72;49.30;96017.66;10396408;28;1879;-62
2023/07/09 19:03:58;;;;;;;;;;;;;;;24.72;49.42;96012.38;10397405;28;1919;-62
2023/07/09 19:08:58;;;;;;;;;;;;;;;24.72;49.43;96013.16;10397853;28;1937;-65
2023/07/09 19:13:58;;;;;;;;;;;;;;;24.74;49.87;96018.97;10396240;28;1882;-66
2023/07/09 19:19:00;;;;;;;;;;;;;;;24.75;49.88;96025.06;10396333;28;1942;-67
2023/07/09 19:24:00;;;;;;;;;;;;;;;24.76;50.23;96014.16;10394680;28;1968;-66
2023/07/09 19:29:00;;;;;;;;;;;;;;;24.78;50.41;96024.47;10392037;28;1951;-66
2023/07/09 19:34:01;;;;;;;;;;;;;;;24.81;50.54;96031.84;10397392;28;2231;-67
2023/07/09 19:39:01;;;;;;;;;;;;;;;24.82;50.45;96036.06;10395941;28;1886;-66
2023/07/09 19:44:01;;;;;;;;;;;;;;;24.83;50.45;96040.31;10400046;28;4721;-68
2023/07/09 19:49:02;;;;;;;;;;;;;;;24.84;50.73;96041.84;10395504;28;1998;-66
2023/07/09 19:54:10;;;;;;;;;;;;;;;24.84;51.01;96047.16;10398606;28;1940;-70
2023/07/09 19:59:10;;;;;;;;;;;;;;;24.86;51.02;96034.41;10395679;28;1943;-70
2023/07/09 20:04:10;;;;;;;;;;;;;;;24.87;50.92;96041.28;10395079;28;2100;-70
2023/07/09 20:09:14;;;;;;;;;;;;;;;24.87;50.85;96042.06;10373305;28;1920;-66
2023/07/09 20:14:15;;;;;;;;;;;;;;;24.89;51.01;96033.81;10393104;28;2123;-66
2023/07/09 20:19:16;;;;;;;;;;;;;;;24.91;52.48;96034.31;10398414;28;1875;-68
2023/07/09 20:24:17;;;;;;;;;;;;;;;24.95;52.71;96033.44;10395221;28;1875;-68
2023/07/09 20:29:17;;;;;;;;;;;;;;;24.98;53.28;96040.00;10391413;28;2162;-68
2023/07/09 20:34:19;;;;;;;;;;;;;;;24.98;53.29;96040.00;10398148;28;1925;-66
2023/07/09 20:39:20;;;;;;;;;;;;;;;24.94;52.47;96044.31;10393668;28;1967;-67
2023/07/09 20:44:21;;;;;;;;;;;;;;;24.87;51.44;96035.97;10379424;28;4447;-67
2023/07/09 20:49:28;;;;;;;;;;;;;;;24.80;50.33;96036.38;10397027;28;1906;-66
2023/07/09 20:54:28;;;;;;;;;;;;;;;24.73;50.32;96038.59;10395196;28;1969;-67
2023/07/09 20:59:29;;;;;;;;;;;;;;;24.69;49.89;96045.53;10363804;28;2184;-66
2023/07/09 21:04:29;;;;;;;;;;;;;;;24.64;49.23;96036.91;10394427;28;2063;-67
2023/07/09 21:09:30;;;;;;;;;;;;;;;24.59;49.16;96034.31;10397837;28;1977;-67
2023/07/09 21:14:30;;;;;;;;;;;;;;;24.55;48.92;96034.13;10405466;28;1977;-67
2023/07/09 21:19:31;;;;;;;;;;;;;;;24.52;48.70;96040.03;10399973;28;2011;-66
2023/07/09 21:24:32;;;;;;;;;;;;;;;24.49;48.24;96050.41;10387237;28;2418;-66
2023/07/09 21:29:33;;;;;;;;;;;;;;;24.48;48.39;96054.94;10402597;28;1914;-66
2023/07/09 21:34:33;;;;;;;;;;;;;;;24.47;48.23;96052.56;10403660;28;2037;-67
2023/07/09 21:39:34;;;;;;;;;;;;;;;24.45;48.13;96060.81;10403426;28;1886;-67
2023/07/09 21:44:34;;;;;;;;;;;;;;;24.44;47.93;96064.53;10402777;28;4513;-66
2023/07/09 21:49:36;;;;;;;;;;;;;;;24.42;47.59;96064.03;10382709;28;2003;-67
2023/07/09 21:54:37;;;;;;;;;;;;;;;24.42;47.63;96063.25;10402067;28;1894;-65
2023/07/09 21:59:37;;;;;;;;;;;;;;;24.42;47.47;96065.91;10400355;28;2297;-66
2023/07/09 22:04:37;;;;;;;;;;;;;;;24.40;47.38;96052.16;10401516;28;2206;-65
2023/07/09 22:09:37;;;;;;;;;;;;;;;24.41;47.20;96062.47;10399866;28;2010;-66
2023/07/09 22:14:38;;;;;;;;;;;;;;;24.40;47.14;96057.47;10396783;28;1953;-67
2023/07/09 22:19:38;;;;;;;;;;;;;;;24.39;46.89;96054.03;10399212;28;2663;-67
2023/07/09 22:24:39;;;;;;;;;;;;;;;24.38;46.93;96054.31;10399426;28;1895;-66
2023/07/09 22:29:39;;;;;;;;;;;;;;;24.37;46.77;96052.72;10402590;28;2016;-65
2023/07/09 22:34:39;;;;;;;;;;;;;;;24.36;46.74;96061.78;10400452;28;1907;-66
2023/07/09 22:39:40;;;;;;;;;;;;;;;24.34;46.38;96054.09;10383746;28;2118;-66
2023/07/09 22:44:40;;;;;;;;;;;;;;;24.34;46.16;96061.28;10400828;28;4458;-66
2023/07/09 22:49:41;;;;;;;;;;;;;;;24.33;46.00;96065.00;10399045;28;2005;-66
2023/07/09 22:54:42;;;;;;;;;;;;;;;24.31;45.76;96060.00;10400250;28;1955;-66
2023/07/09 22:59:43;;;;;;;;;;;;;;;24.29;45.59;96058.69;10395888;28;1941;-66
2023/07/09 23:04:43;;;;;;;;;;;;;;;24.29;45.46;96061.34;10400378;28;2020;-66
2023/07/09 23:09:43;;;;;;;;;;;;;;;24.28;45.23;96065.09;10396632;28;1977;-66
2023/07/09 23:14:44;;;;;;;;;;;;;;;24.26;44.87;96070.66;10397209;28;2336;-67
2023/07/09 23:19:45;;;;;;;;;;;;;;;24.24;44.93;96068.31;10397987;28;1966;-65
2023/07/09 23:24:45;;;;;;;;;;;;;;;24.24;44.77;96060.34;10398739;28;1886;-67
2023/07/09 23:29:46;;;;;;;;;;;;;;;24.22;44.75;96053.75;10398057;28;1995;-66
2023/07/09 23:34:46;;;;;;;;;;;;;;;24.22;44.18;96051.13;10398550;28;1976;-66
2023/07/09 23:39:46;;;;;;;;;;;;;;;24.18;43.71;96060.72;10398248;28;1875;-65
2023/07/09 23:44:47;;;;;;;;;;;;;;;24.18;43.55;96053.56;10399798;28;4705;-66
2023/07/09 23:49:47;;;;;;;;;;;;;;;24.18;44.01;96064.16;10394012;28;1977;-66
2023/07/09 23:54:47;;;;;;;;;;;;;;;24.17;43.84;96059.16;10396933;28;1957;-67
2023/07/09 23:59:49;;;;;;;;;;;;;;;24.15;43.73;96064.72;10394355;28;1902;-66
